sensor_id;sensor_type;location;lat;lon;timestamp;P1;durP1;ratioP1;P2;durP2;ratioP2
15629;SDS011;7914;50.842;0.166;2024-03-17T00:01:16;14.07;;;8.07;;
15629;SDS011;7914;50.842;0.166;2024-03-17T00:03:42;19.08;;;7.22;;
15629;SDS011;7914;50.842;0.166;2024-03-17T00:06:08;16.77;;;7.30;;
15629;SDS011;7914;50.842;0.166;2024-03-17T00:08:35;18.65;;;7.18;;
15629;SDS011;7914;50.842;0.166;2024-03-17T00:11:00;19.05;;;7.45;;
15629;SDS011;7914;50.842;0.166;2024-03-17T00:13:26;15.65;;;7.22;;
15629;SDS011;7914;50.842;0.166;2024-03-17T00:15:52;16.48;;;7.72;;
15629;SDS011;7914;50.842;0.166;2024-03-17T00:18:18;17.73;;;7.65;;
15629;SDS011;7914;50.842;0.166;2024-03-17T00:20:43;20.60;;;7.70;;
15629;SDS011;7914;50.842;0.166;2024-03-17T00:23:09;16.77;;;7.72;;
15629;SDS011;7914;50.842;0.166;2024-03-17T00:25:37;19.98;;;7.30;;
15629;SDS011;7914;50.842;0.166;2024-03-17T00:28:03;18.80;;;8.70;;
15629;SDS011;7914;50.842;0.166;2024-03-17T00:30:29;21.27;;;8.35;;
15629;SDS011;7914;50.842;0.166;2024-03-17T00:32:56;17.50;;;7.35;;
15629;SDS011;7914;50.842;0.166;2024-03-17T00:35:25;13.98;;;6.85;;
15629;SDS011;7914;50.842;0.166;2024-03-17T00:37:51;17.05;;;6.80;;
15629;SDS011;7914;50.842;0.166;2024-03-17T00:40:18;17.65;;;7.28;;
15629;SDS011;7914;50.842;0.166;2024-03-17T00:42:45;13.05;;;6.65;;
15629;SDS011;7914;50.842;0.166;2024-03-17T00:45:11;15.27;;;6.18;;
15629;SDS011;7914;50.842;0.166;2024-03-17T00:47:37;13.65;;;6.72;;
15629;SDS011;7914;50.842;0.166;2024-03-17T00:50:04;14.98;;;6.43;;
15629;SDS011;7914;50.842;0.166;2024-03-17T00:52:31;15.70;;;6.70;;
15629;SDS011;7914;50.842;0.166;2024-03-17T00:54:57;16.20;;;6.85;;
15629;SDS011;7914;50.842;0.166;2024-03-17T00:57:23;14.70;;;6.63;;
15629;SDS011;7914;50.842;0.166;2024-03-17T00:59:49;13.23;;;6.22;;
15629;SDS011;7914;50.842;0.166;2024-03-17T01:02:15;20.80;;;6.57;;
15629;SDS011;7914;50.842;0.166;2024-03-17T01:04:45;12.95;;;5.40;;
15629;SDS011;7914;50.842;0.166;2024-03-17T01:07:11;20.17;;;5.63;;
15629;SDS011;7914;50.842;0.166;2024-03-17T01:09:37;15.18;;;6.07;;
15629;SDS011;7914;50.842;0.166;2024-03-17T01:12:03;23.13;;;6.88;;
15629;SDS011;7914;50.842;0.166;2024-03-17T01:14:31;18.15;;;5.85;;
15629;SDS011;7914;50.842;0.166;2024-03-17T01:16:58;20.58;;;5.93;;
15629;SDS011;7914;50.842;0.166;2024-03-17T01:19:25;18.45;;;5.57;;
15629;SDS011;7914;50.842;0.166;2024-03-17T01:21:51;14.70;;;5.95;;
15629;SDS011;7914;50.842;0.166;2024-03-17T01:24:17;14.65;;;5.40;;
15629;SDS011;7914;50.842;0.166;2024-03-17T01:26:43;16.77;;;5.95;;
15629;SDS011;7914;50.842;0.166;2024-03-17T01:29:10;14.90;;;5.65;;
15629;SDS011;7914;50.842;0.166;2024-03-17T01:31:35;18.73;;;6.13;;
15629;SDS011;7914;50.842;0.166;2024-03-17T01:34:01;19.10;;;10.80;;
15629;SDS011;7914;50.842;0.166;2024-03-17T01:36:27;18.60;;;6.75;;
15629;SDS011;7914;50.842;0.166;2024-03-17T01:38:54;13.35;;;5.75;;
15629;SDS011;7914;50.842;0.166;2024-03-17T01:41:19;21.85;;;6.13;;
15629;SDS011;7914;50.842;0.166;2024-03-17T01:43:45;21.02;;;6.70;;
15629;SDS011;7914;50.842;0.166;2024-03-17T01:46:12;18.05;;;6.20;;
15629;SDS011;7914;50.842;0.166;2024-03-17T01:51:06;17.25;;;6.40;;
15629;SDS011;7914;50.842;0.166;2024-03-17T01:53:33;15.70;;;5.32;;
15629;SDS011;7914;50.842;0.166;2024-03-17T01:56:00;16.20;;;5.60;;
15629;SDS011;7914;50.842;0.166;2024-03-17T01:58:27;18.48;;;5.95;;
15629;SDS011;7914;50.842;0.166;2024-03-17T02:00:55;21.00;;;6.72;;
15629;SDS011;7914;50.842;0.166;2024-03-17T02:03:21;19.65;;;6.75;;
15629;SDS011;7914;50.842;0.166;2024-03-17T02:05:47;16.33;;;5.95;;
15629;SDS011;7914;50.842;0.166;2024-03-17T02:08:13;19.40;;;6.05;;
15629;SDS011;7914;50.842;0.166;2024-03-17T02:10:39;18.45;;;6.80;;
15629;SDS011;7914;50.842;0.166;2024-03-17T02:13:05;16.52;;;6.32;;
15629;SDS011;7914;50.842;0.166;2024-03-17T02:15:32;23.10;;;6.38;;
15629;SDS011;7914;50.842;0.166;2024-03-17T02:17:58;20.00;;;6.85;;
15629;SDS011;7914;50.842;0.166;2024-03-17T02:20:24;18.50;;;6.75;;
15629;SDS011;7914;50.842;0.166;2024-03-17T02:23:10;23.20;;;6.63;;
15629;SDS011;7914;50.842;0.166;2024-03-17T02:25:37;22.33;;;5.88;;
15629;SDS011;7914;50.842;0.166;2024-03-17T02:28:03;16.95;;;6.07;;
15629;SDS011;7914;50.842;0.166;2024-03-17T02:30:29;22.20;;;6.47;;
15629;SDS011;7914;50.842;0.166;2024-03-17T02:32:55;15.55;;;5.43;;
15629;SDS011;7914;50.842;0.166;2024-03-17T02:35:22;20.80;;;6.25;;
15629;SDS011;7914;50.842;0.166;2024-03-17T02:37:48;25.88;;;7.75;;
15629;SDS011;7914;50.842;0.166;2024-03-17T02:40:14;21.17;;;6.95;;
15629;SDS011;7914;50.842;0.166;2024-03-17T02:42:41;22.40;;;7.03;;
15629;SDS011;7914;50.842;0.166;2024-03-17T02:45:11;20.77;;;6.93;;
15629;SDS011;7914;50.842;0.166;2024-03-17T02:47:39;28.15;;;5.97;;
15629;SDS011;7914;50.842;0.166;2024-03-17T02:50:06;18.90;;;6.07;;
15629;SDS011;7914;50.842;0.166;2024-03-17T02:52:34;24.90;;;7.50;;
15629;SDS011;7914;50.842;0.166;2024-03-17T02:54:59;37.70;;;6.93;;
15629;SDS011;7914;50.842;0.166;2024-03-17T02:57:25;19.88;;;6.47;;
15629;SDS011;7914;50.842;0.166;2024-03-17T02:59:57;20.90;;;6.32;;
15629;SDS011;7914;50.842;0.166;2024-03-17T03:02:24;20.38;;;5.28;;
15629;SDS011;7914;50.842;0.166;2024-03-17T03:04:50;22.33;;;7.00;;
15629;SDS011;7914;50.842;0.166;2024-03-17T03:07:15;17.95;;;6.07;;
15629;SDS011;7914;50.842;0.166;2024-03-17T03:09:41;16.67;;;5.63;;
15629;SDS011;7914;50.842;0.166;2024-03-17T03:12:07;18.52;;;5.15;;
15629;SDS011;7914;50.842;0.166;2024-03-17T03:14:33;19.67;;;5.78;;
15629;SDS011;7914;50.842;0.166;2024-03-17T03:16:59;18.08;;;5.93;;
15629;SDS011;7914;50.842;0.166;2024-03-17T03:19:25;16.90;;;5.55;;
15629;SDS011;7914;50.842;0.166;2024-03-17T03:21:52;14.88;;;4.95;;
15629;SDS011;7914;50.842;0.166;2024-03-17T03:24:18;23.63;;;6.32;;
15629;SDS011;7914;50.842;0.166;2024-03-17T03:26:44;21.30;;;5.32;;
15629;SDS011;7914;50.842;0.166;2024-03-17T03:29:10;20.33;;;4.50;;
15629;SDS011;7914;50.842;0.166;2024-03-17T03:31:36;17.25;;;4.95;;
15629;SDS011;7914;50.842;0.166;2024-03-17T03:34:04;19.70;;;5.38;;
15629;SDS011;7914;50.842;0.166;2024-03-17T03:36:33;16.73;;;5.03;;
15629;SDS011;7914;50.842;0.166;2024-03-17T03:38:59;21.38;;;5.30;;
15629;SDS011;7914;50.842;0.166;2024-03-17T03:41:25;20.67;;;5.95;;
15629;SDS011;7914;50.842;0.166;2024-03-17T03:43:51;21.20;;;5.47;;
15629;SDS011;7914;50.842;0.166;2024-03-17T03:46:17;16.02;;;5.05;;
15629;SDS011;7914;50.842;0.166;2024-03-17T03:48:43;16.40;;;4.97;;
15629;SDS011;7914;50.842;0.166;2024-03-17T03:51:09;14.88;;;4.50;;
15629;SDS011;7914;50.842;0.166;2024-03-17T03:53:35;20.02;;;5.32;;
15629;SDS011;7914;50.842;0.166;2024-03-17T03:56:05;22.98;;;4.93;;
15629;SDS011;7914;50.842;0.166;2024-03-17T03:58:40;24.42;;;5.80;;
15629;SDS011;7914;50.842;0.166;2024-03-17T04:01:08;15.35;;;4.72;;
15629;SDS011;7914;50.842;0.166;2024-03-17T04:06:05;25.33;;;6.00;;
15629;SDS011;7914;50.842;0.166;2024-03-17T04:08:33;21.67;;;5.32;;
15629;SDS011;7914;50.842;0.166;2024-03-17T04:10:59;23.52;;;4.18;;
15629;SDS011;7914;50.842;0.166;2024-03-17T04:13:29;15.18;;;4.38;;
15629;SDS011;7914;50.842;0.166;2024-03-17T04:15:56;12.32;;;4.00;;
15629;SDS011;7914;50.842;0.166;2024-03-17T04:18:23;17.75;;;5.45;;
15629;SDS011;7914;50.842;0.166;2024-03-17T04:20:51;21.08;;;3.90;;
15629;SDS011;7914;50.842;0.166;2024-03-17T04:23:21;13.15;;;3.90;;
15629;SDS011;7914;50.842;0.166;2024-03-17T04:25:47;13.73;;;4.45;;
15629;SDS011;7914;50.842;0.166;2024-03-17T04:28:13;19.52;;;4.90;;
15629;SDS011;7914;50.842;0.166;2024-03-17T04:30:39;18.30;;;5.28;;
15629;SDS011;7914;50.842;0.166;2024-03-17T04:33:05;15.35;;;4.28;;
15629;SDS011;7914;50.842;0.166;2024-03-17T04:35:35;21.73;;;5.18;;
15629;SDS011;7914;50.842;0.166;2024-03-17T04:38:01;17.80;;;4.93;;
15629;SDS011;7914;50.842;0.166;2024-03-17T04:40:27;14.40;;;5.15;;
15629;SDS011;7914;50.842;0.166;2024-03-17T04:42:52;19.45;;;5.72;;
15629;SDS011;7914;50.842;0.166;2024-03-17T04:45:18;15.48;;;4.88;;
15629;SDS011;7914;50.842;0.166;2024-03-17T04:47:44;21.45;;;5.55;;
15629;SDS011;7914;50.842;0.166;2024-03-17T04:50:09;21.50;;;5.32;;
15629;SDS011;7914;50.842;0.166;2024-03-17T04:52:37;17.52;;;5.57;;
15629;SDS011;7914;50.842;0.166;2024-03-17T04:55:03;16.13;;;4.30;;
15629;SDS011;7914;50.842;0.166;2024-03-17T04:57:29;20.45;;;4.85;;
15629;SDS011;7914;50.842;0.166;2024-03-17T04:59:55;12.75;;;3.97;;
15629;SDS011;7914;50.842;0.166;2024-03-17T05:02:21;19.08;;;5.13;;
15629;SDS011;7914;50.842;0.166;2024-03-17T05:04:48;23.08;;;5.20;;
15629;SDS011;7914;50.842;0.166;2024-03-17T05:07:15;28.23;;;6.53;;
15629;SDS011;7914;50.842;0.166;2024-03-17T05:09:41;17.20;;;4.95;;
15629;SDS011;7914;50.842;0.166;2024-03-17T05:12:09;15.57;;;4.60;;
15629;SDS011;7914;50.842;0.166;2024-03-17T05:14:35;14.02;;;5.65;;
15629;SDS011;7914;50.842;0.166;2024-03-17T05:17:01;15.35;;;4.55;;
15629;SDS011;7914;50.842;0.166;2024-03-17T05:19:26;19.92;;;5.55;;
15629;SDS011;7914;50.842;0.166;2024-03-17T05:21:52;17.90;;;5.00;;
15629;SDS011;7914;50.842;0.166;2024-03-17T05:24:18;17.65;;;5.45;;
15629;SDS011;7914;50.842;0.166;2024-03-17T05:26:44;19.17;;;5.05;;
15629;SDS011;7914;50.842;0.166;2024-03-17T05:29:11;14.90;;;4.63;;
15629;SDS011;7914;50.842;0.166;2024-03-17T05:31:37;16.85;;;4.90;;
15629;SDS011;7914;50.842;0.166;2024-03-17T05:34:06;20.90;;;4.45;;
15629;SDS011;7914;50.842;0.166;2024-03-17T05:36:32;23.05;;;5.13;;
15629;SDS011;7914;50.842;0.166;2024-03-17T05:38:59;21.80;;;4.18;;
15629;SDS011;7914;50.842;0.166;2024-03-17T05:41:25;20.63;;;5.25;;
15629;SDS011;7914;50.842;0.166;2024-03-17T05:43:51;19.42;;;4.32;;
15629;SDS011;7914;50.842;0.166;2024-03-17T05:46:17;21.33;;;4.70;;
15629;SDS011;7914;50.842;0.166;2024-03-17T05:48:43;14.75;;;4.72;;
15629;SDS011;7914;50.842;0.166;2024-03-17T05:51:09;11.73;;;3.95;;
15629;SDS011;7914;50.842;0.166;2024-03-17T05:53:36;16.75;;;4.25;;
15629;SDS011;7914;50.842;0.166;2024-03-17T05:56:05;14.10;;;3.70;;
15629;SDS011;7914;50.842;0.166;2024-03-17T05:58:34;21.20;;;4.43;;
15629;SDS011;7914;50.842;0.166;2024-03-17T06:01:03;19.48;;;8.77;;
15629;SDS011;7914;50.842;0.166;2024-03-17T06:03:29;24.05;;;5.75;;
15629;SDS011;7914;50.842;0.166;2024-03-17T06:05:55;21.17;;;4.47;;
15629;SDS011;7914;50.842;0.166;2024-03-17T06:08:23;15.07;;;4.00;;
15629;SDS011;7914;50.842;0.166;2024-03-17T06:10:50;20.48;;;4.97;;
15629;SDS011;7914;50.842;0.166;2024-03-17T06:13:15;23.77;;;5.03;;
15629;SDS011;7914;50.842;0.166;2024-03-17T06:15:42;16.33;;;3.45;;
15629;SDS011;7914;50.842;0.166;2024-03-17T06:18:13;17.48;;;4.50;;
15629;SDS011;7914;50.842;0.166;2024-03-17T06:20:40;18.98;;;5.20;;
15629;SDS011;7914;50.842;0.166;2024-03-17T06:23:09;16.08;;;4.32;;
15629;SDS011;7914;50.842;0.166;2024-03-17T06:25:54;19.20;;;5.38;;
15629;SDS011;7914;50.842;0.166;2024-03-17T06:30:54;19.90;;;5.15;;
15629;SDS011;7914;50.842;0.166;2024-03-17T06:33:24;17.77;;;4.15;;
15629;SDS011;7914;50.842;0.166;2024-03-17T06:35:51;17.83;;;4.50;;
15629;SDS011;7914;50.842;0.166;2024-03-17T06:38:16;15.68;;;4.40;;
15629;SDS011;7914;50.842;0.166;2024-03-17T06:40:47;13.85;;;4.05;;
15629;SDS011;7914;50.842;0.166;2024-03-17T06:43:15;15.95;;;5.32;;
15629;SDS011;7914;50.842;0.166;2024-03-17T06:45:41;15.50;;;3.58;;
15629;SDS011;7914;50.842;0.166;2024-03-17T06:48:06;20.60;;;4.85;;
15629;SDS011;7914;50.842;0.166;2024-03-17T06:50:32;12.70;;;3.78;;
15629;SDS011;7914;50.842;0.166;2024-03-17T06:52:58;16.48;;;3.60;;
15629;SDS011;7914;50.842;0.166;2024-03-17T06:55:23;19.67;;;5.97;;
15629;SDS011;7914;50.842;0.166;2024-03-17T06:57:49;12.07;;;4.20;;
15629;SDS011;7914;50.842;0.166;2024-03-17T07:00:16;19.42;;;3.97;;
15629;SDS011;7914;50.842;0.166;2024-03-17T07:02:43;11.43;;;3.15;;
15629;SDS011;7914;50.842;0.166;2024-03-17T07:05:12;16.52;;;3.92;;
15629;SDS011;7914;50.842;0.166;2024-03-17T07:07:39;14.80;;;3.10;;
15629;SDS011;7914;50.842;0.166;2024-03-17T07:10:06;12.27;;;3.63;;
15629;SDS011;7914;50.842;0.166;2024-03-17T07:12:33;10.93;;;3.20;;
15629;SDS011;7914;50.842;0.166;2024-03-17T07:14:59;18.38;;;4.07;;
15629;SDS011;7914;50.842;0.166;2024-03-17T07:17:25;19.40;;;3.83;;
15629;SDS011;7914;50.842;0.166;2024-03-17T07:19:51;12.90;;;3.50;;
15629;SDS011;7914;50.842;0.166;2024-03-17T07:22:17;15.45;;;3.97;;
15629;SDS011;7914;50.842;0.166;2024-03-17T07:24:43;18.70;;;4.03;;
15629;SDS011;7914;50.842;0.166;2024-03-17T07:27:09;18.95;;;3.88;;
15629;SDS011;7914;50.842;0.166;2024-03-17T07:29:38;14.02;;;4.13;;
15629;SDS011;7914;50.842;0.166;2024-03-17T07:32:04;12.77;;;3.97;;
15629;SDS011;7914;50.842;0.166;2024-03-17T07:34:31;12.18;;;3.78;;
15629;SDS011;7914;50.842;0.166;2024-03-17T07:36:57;14.63;;;3.33;;
15629;SDS011;7914;50.842;0.166;2024-03-17T07:39:28;14.10;;;3.47;;
15629;SDS011;7914;50.842;0.166;2024-03-17T07:42:00;12.13;;;3.30;;
15629;SDS011;7914;50.842;0.166;2024-03-17T07:44:27;16.30;;;3.72;;
15629;SDS011;7914;50.842;0.166;2024-03-17T07:47:02;18.00;;;4.28;;
15629;SDS011;7914;50.842;0.166;2024-03-17T07:49:31;17.88;;;3.53;;
15629;SDS011;7914;50.842;0.166;2024-03-17T07:51:57;20.85;;;4.55;;
15629;SDS011;7914;50.842;0.166;2024-03-17T07:54:24;16.15;;;4.85;;
15629;SDS011;7914;50.842;0.166;2024-03-17T07:56:51;12.18;;;3.20;;
15629;SDS011;7914;50.842;0.166;2024-03-17T07:59:17;14.13;;;3.05;;
15629;SDS011;7914;50.842;0.166;2024-03-17T08:01:43;18.00;;;3.78;;
15629;SDS011;7914;50.842;0.166;2024-03-17T08:04:09;14.70;;;4.00;;
15629;SDS011;7914;50.842;0.166;2024-03-17T08:06:37;14.45;;;3.67;;
15629;SDS011;7914;50.842;0.166;2024-03-17T08:09:07;12.52;;;3.20;;
15629;SDS011;7914;50.842;0.166;2024-03-17T08:11:33;14.55;;;2.95;;
15629;SDS011;7914;50.842;0.166;2024-03-17T08:13:59;10.70;;;2.60;;
15629;SDS011;7914;50.842;0.166;2024-03-17T08:16:26;13.82;;;3.30;;
15629;SDS011;7914;50.842;0.166;2024-03-17T08:18:53;18.45;;;3.35;;
15629;SDS011;7914;50.842;0.166;2024-03-17T08:21:19;11.35;;;3.00;;
15629;SDS011;7914;50.842;0.166;2024-03-17T08:23:44;16.17;;;4.28;;
15629;SDS011;7914;50.842;0.166;2024-03-17T08:26:12;10.35;;;2.83;;
15629;SDS011;7914;50.842;0.166;2024-03-17T08:28:38;17.08;;;4.55;;
15629;SDS011;7914;50.842;0.166;2024-03-17T08:31:04;12.85;;;2.58;;
15629;SDS011;7914;50.842;0.166;2024-03-17T08:33:30;12.30;;;2.95;;
15629;SDS011;7914;50.842;0.166;2024-03-17T08:36:07;9.45;;;2.47;;
15629;SDS011;7914;50.842;0.166;2024-03-17T08:38:33;9.00;;;3.20;;
15629;SDS011;7914;50.842;0.166;2024-03-17T08:41:04;11.02;;;2.75;;
15629;SDS011;7914;50.842;0.166;2024-03-17T08:43:31;8.85;;;3.65;;
15629;SDS011;7914;50.842;0.166;2024-03-17T08:45:58;14.48;;;5.28;;
15629;SDS011;7914;50.842;0.166;2024-03-17T08:48:26;10.43;;;4.40;;
15629;SDS011;7914;50.842;0.166;2024-03-17T08:50:54;12.45;;;3.50;;
15629;SDS011;7914;50.842;0.166;2024-03-17T08:53:20;10.27;;;3.50;;
15629;SDS011;7914;50.842;0.166;2024-03-17T08:55:46;7.80;;;2.85;;
15629;SDS011;7914;50.842;0.166;2024-03-17T08:58:13;11.10;;;2.90;;
15629;SDS011;7914;50.842;0.166;2024-03-17T09:00:39;12.15;;;3.63;;
15629;SDS011;7914;50.842;0.166;2024-03-17T09:03:15;7.03;;;3.53;;
15629;SDS011;7914;50.842;0.166;2024-03-17T09:05:42;9.38;;;3.67;;
15629;SDS011;7914;50.842;0.166;2024-03-17T09:08:14;9.00;;;3.75;;
15629;SDS011;7914;50.842;0.166;2024-03-17T09:10:45;12.07;;;3.50;;
15629;SDS011;7914;50.842;0.166;2024-03-17T09:13:18;9.43;;;2.90;;
15629;SDS011;7914;50.842;0.166;2024-03-17T09:18:25;10.75;;;2.60;;
15629;SDS011;7914;50.842;0.166;2024-03-17T09:21:04;5.13;;;2.28;;
15629;SDS011;7914;50.842;0.166;2024-03-17T09:23:33;6.95;;;1.88;;
15629;SDS011;7914;50.842;0.166;2024-03-17T09:26:07;7.13;;;2.22;;
15629;SDS011;7914;50.842;0.166;2024-03-17T09:28:33;4.95;;;1.48;;
15629;SDS011;7914;50.842;0.166;2024-03-17T09:31:00;3.00;;;1.52;;
15629;SDS011;7914;50.842;0.166;2024-03-17T09:33:27;5.38;;;1.65;;
15629;SDS011;7914;50.842;0.166;2024-03-17T09:35:58;2.78;;;1.33;;
15629;SDS011;7914;50.842;0.166;2024-03-17T09:38:26;3.00;;;1.10;;
15629;SDS011;7914;50.842;0.166;2024-03-17T09:40:52;4.20;;;1.20;;
15629;SDS011;7914;50.842;0.166;2024-03-17T09:43:20;2.70;;;1.10;;
15629;SDS011;7914;50.842;0.166;2024-03-17T09:45:47;2.75;;;1.13;;
15629;SDS011;7914;50.842;0.166;2024-03-17T09:48:16;2.72;;;0.90;;
15629;SDS011;7914;50.842;0.166;2024-03-17T09:53:21;3.70;;;1.40;;
15629;SDS011;7914;50.842;0.166;2024-03-17T09:58:37;3.97;;;1.63;;
15629;SDS011;7914;50.842;0.166;2024-03-17T10:01:03;3.78;;;1.48;;
15629;SDS011;7914;50.842;0.166;2024-03-17T10:03:42;5.40;;;2.08;;
15629;SDS011;7914;50.842;0.166;2024-03-17T10:06:26;5.28;;;2.00;;
15629;SDS011;7914;50.842;0.166;2024-03-17T10:08:53;7.70;;;2.00;;
15629;SDS011;7914;50.842;0.166;2024-03-17T10:11:20;6.15;;;1.92;;
15629;SDS011;7914;50.842;0.166;2024-03-17T10:14:07;8.05;;;2.20;;
15629;SDS011;7914;50.842;0.166;2024-03-17T10:16:34;5.22;;;1.38;;
15629;SDS011;7914;50.842;0.166;2024-03-17T10:21:45;6.40;;;1.92;;
15629;SDS011;7914;50.842;0.166;2024-03-17T10:24:21;5.63;;;2.38;;
15629;SDS011;7914;50.842;0.166;2024-03-17T10:26:55;6.50;;;2.58;;
15629;SDS011;7914;50.842;0.166;2024-03-17T10:29:34;11.73;;;2.83;;
15629;SDS011;7914;50.842;0.166;2024-03-17T10:32:04;8.18;;;2.60;;
15629;SDS011;7914;50.842;0.166;2024-03-17T10:34:38;10.30;;;3.17;;
15629;SDS011;7914;50.842;0.166;2024-03-17T10:39:39;8.77;;;2.50;;
15629;SDS011;7914;50.842;0.166;2024-03-17T10:42:07;10.02;;;3.10;;
15629;SDS011;7914;50.842;0.166;2024-03-17T10:44:37;12.05;;;3.17;;
15629;SDS011;7914;50.842;0.166;2024-03-17T10:47:04;10.95;;;3.67;;
15629;SDS011;7914;50.842;0.166;2024-03-17T10:49:35;13.38;;;3.38;;
15629;SDS011;7914;50.842;0.166;2024-03-17T10:52:15;12.73;;;2.58;;
15629;SDS011;7914;50.842;0.166;2024-03-17T10:55:06;9.63;;;3.42;;
15629;SDS011;7914;50.842;0.166;2024-03-17T10:57:38;11.43;;;3.15;;
15629;SDS011;7914;50.842;0.166;2024-03-17T11:00:13;10.27;;;3.20;;
15629;SDS011;7914;50.842;0.166;2024-03-17T11:02:43;13.38;;;5.32;;
15629;SDS011;7914;50.842;0.166;2024-03-17T11:07:49;11.73;;;3.33;;
15629;SDS011;7914;50.842;0.166;2024-03-17T11:10:24;12.20;;;3.42;;
15629;SDS011;7914;50.842;0.166;2024-03-17T11:12:59;8.20;;;2.85;;
15629;SDS011;7914;50.842;0.166;2024-03-17T11:17:55;8.95;;;2.85;;
15629;SDS011;7914;50.842;0.166;2024-03-17T11:20:34;9.32;;;2.58;;
15629;SDS011;7914;50.842;0.166;2024-03-17T11:23:02;8.70;;;3.28;;
15629;SDS011;7914;50.842;0.166;2024-03-17T11:38:59;8.35;;;2.22;;
15629;SDS011;7914;50.842;0.166;2024-03-17T11:49:29;8.85;;;2.47;;
15629;SDS011;7914;50.842;0.166;2024-03-17T11:51:57;7.95;;;2.20;;
15629;SDS011;7914;50.842;0.166;2024-03-17T11:54:34;11.75;;;2.63;;
15629;SDS011;7914;50.842;0.166;2024-03-17T11:57:02;5.80;;;2.28;;
15629;SDS011;7914;50.842;0.166;2024-03-17T11:59:29;11.23;;;2.60;;
15629;SDS011;7914;50.842;0.166;2024-03-17T12:01:55;10.13;;;2.50;;
15629;SDS011;7914;50.842;0.166;2024-03-17T12:04:21;17.58;;;3.40;;
15629;SDS011;7914;50.842;0.166;2024-03-17T12:06:49;9.65;;;2.72;;
15629;SDS011;7914;50.842;0.166;2024-03-17T12:09:22;14.73;;;2.92;;
15629;SDS011;7914;50.842;0.166;2024-03-17T12:12:05;9.55;;;2.92;;
15629;SDS011;7914;50.842;0.166;2024-03-17T12:14:34;9.40;;;2.85;;
15629;SDS011;7914;50.842;0.166;2024-03-17T12:17:04;7.60;;;2.60;;
15629;SDS011;7914;50.842;0.166;2024-03-17T12:19:34;9.35;;;2.65;;
15629;SDS011;7914;50.842;0.166;2024-03-17T12:22:03;10.88;;;2.40;;
15629;SDS011;7914;50.842;0.166;2024-03-17T12:24:33;9.48;;;2.92;;
15629;SDS011;7914;50.842;0.166;2024-03-17T12:27:01;5.82;;;1.90;;
15629;SDS011;7914;50.842;0.166;2024-03-17T12:32:26;9.27;;;2.72;;
15629;SDS011;7914;50.842;0.166;2024-03-17T12:34:57;9.23;;;2.67;;
15629;SDS011;7914;50.842;0.166;2024-03-17T12:37:27;8.23;;;2.67;;
15629;SDS011;7914;50.842;0.166;2024-03-17T12:39:59;8.20;;;2.45;;
15629;SDS011;7914;50.842;0.166;2024-03-17T12:42:26;7.20;;;2.30;;
15629;SDS011;7914;50.842;0.166;2024-03-17T12:44:54;6.70;;;2.38;;
15629;SDS011;7914;50.842;0.166;2024-03-17T12:47:23;9.80;;;2.83;;
15629;SDS011;7914;50.842;0.166;2024-03-17T12:49:51;7.90;;;2.50;;
15629;SDS011;7914;50.842;0.166;2024-03-17T12:52:24;8.18;;;2.28;;
15629;SDS011;7914;50.842;0.166;2024-03-17T12:54:58;9.55;;;2.40;;
15629;SDS011;7914;50.842;0.166;2024-03-17T12:57:43;6.82;;;2.40;;
15629;SDS011;7914;50.842;0.166;2024-03-17T13:00:28;8.05;;;2.30;;
15629;SDS011;7914;50.842;0.166;2024-03-17T13:03:07;5.93;;;2.20;;
15629;SDS011;7914;50.842;0.166;2024-03-17T13:05:33;5.53;;;1.83;;
15629;SDS011;7914;50.842;0.166;2024-03-17T13:07:59;6.00;;;2.08;;
15629;SDS011;7914;50.842;0.166;2024-03-17T13:10:26;6.25;;;2.10;;
15629;SDS011;7914;50.842;0.166;2024-03-17T13:13:00;6.28;;;2.00;;
15629;SDS011;7914;50.842;0.166;2024-03-17T13:15:30;4.25;;;1.55;;
15629;SDS011;7914;50.842;0.166;2024-03-17T13:18:00;6.05;;;1.70;;
15629;SDS011;7914;50.842;0.166;2024-03-17T13:20:25;4.75;;;1.45;;
15629;SDS011;7914;50.842;0.166;2024-03-17T13:22:52;4.45;;;1.67;;
15629;SDS011;7914;50.842;0.166;2024-03-17T13:25:18;4.75;;;1.40;;
15629;SDS011;7914;50.842;0.166;2024-03-17T13:27:49;6.55;;;1.70;;
15629;SDS011;7914;50.842;0.166;2024-03-17T13:30:18;6.97;;;1.73;;
15629;SDS011;7914;50.842;0.166;2024-03-17T13:32:44;4.22;;;1.48;;
15629;SDS011;7914;50.842;0.166;2024-03-17T13:35:18;5.97;;;1.80;;
15629;SDS011;7914;50.842;0.166;2024-03-17T13:37:44;4.95;;;2.17;;
15629;SDS011;7914;50.842;0.166;2024-03-17T13:40:14;3.90;;;1.65;;
15629;SDS011;7914;50.842;0.166;2024-03-17T13:42:44;5.78;;;2.25;;
15629;SDS011;7914;50.842;0.166;2024-03-17T13:45:17;2.88;;;1.02;;
15629;SDS011;7914;50.842;0.166;2024-03-17T13:47:55;3.90;;;1.23;;
15629;SDS011;7914;50.842;0.166;2024-03-17T13:50:22;3.65;;;1.38;;
15629;SDS011;7914;50.842;0.166;2024-03-17T13:52:48;4.60;;;1.60;;
15629;SDS011;7914;50.842;0.166;2024-03-17T13:55:19;4.15;;;1.20;;
15629;SDS011;7914;50.842;0.166;2024-03-17T13:57:46;4.45;;;1.20;;
15629;SDS011;7914;50.842;0.166;2024-03-17T14:00:14;4.18;;;1.40;;
15629;SDS011;7914;50.842;0.166;2024-03-17T14:02:48;4.75;;;1.30;;
15629;SDS011;7914;50.842;0.166;2024-03-17T14:05:15;4.47;;;1.30;;
15629;SDS011;7914;50.842;0.166;2024-03-17T14:07:46;5.93;;;1.67;;
15629;SDS011;7914;50.842;0.166;2024-03-17T14:10:13;3.17;;;1.10;;
15629;SDS011;7914;50.842;0.166;2024-03-17T14:12:39;7.22;;;2.05;;
15629;SDS011;7914;50.842;0.166;2024-03-17T14:15:06;5.95;;;2.03;;
15629;SDS011;7914;50.842;0.166;2024-03-17T14:17:45;4.63;;;1.80;;
15629;SDS011;7914;50.842;0.166;2024-03-17T14:20:12;3.75;;;1.55;;
15629;SDS011;7914;50.842;0.166;2024-03-17T14:22:40;4.03;;;1.65;;
15629;SDS011;7914;50.842;0.166;2024-03-17T14:25:10;4.93;;;1.40;;
15629;SDS011;7914;50.842;0.166;2024-03-17T14:27:42;3.60;;;1.23;;
15629;SDS011;7914;50.842;0.166;2024-03-17T14:30:08;4.70;;;1.40;;
15629;SDS011;7914;50.842;0.166;2024-03-17T14:32:38;5.10;;;1.52;;
15629;SDS011;7914;50.842;0.166;2024-03-17T14:35:04;6.72;;;1.42;;
15629;SDS011;7914;50.842;0.166;2024-03-17T14:37:30;4.60;;;1.60;;
15629;SDS011;7914;50.842;0.166;2024-03-17T14:39:56;4.72;;;1.30;;
15629;SDS011;7914;50.842;0.166;2024-03-17T14:42:22;5.65;;;1.67;;
15629;SDS011;7914;50.842;0.166;2024-03-17T14:44:48;5.75;;;1.60;;
15629;SDS011;7914;50.842;0.166;2024-03-17T14:47:14;4.97;;;1.20;;
15629;SDS011;7914;50.842;0.166;2024-03-17T14:49:40;5.18;;;1.60;;
15629;SDS011;7914;50.842;0.166;2024-03-17T14:52:06;4.65;;;1.50;;
15629;SDS011;7914;50.842;0.166;2024-03-17T14:54:32;8.07;;;1.50;;
15629;SDS011;7914;50.842;0.166;2024-03-17T14:56:58;8.07;;;1.98;;
15629;SDS011;7914;50.842;0.166;2024-03-17T14:59:25;5.55;;;1.45;;
15629;SDS011;7914;50.842;0.166;2024-03-17T15:01:50;3.40;;;1.48;;
15629;SDS011;7914;50.842;0.166;2024-03-17T15:04:16;3.65;;;1.30;;
15629;SDS011;7914;50.842;0.166;2024-03-17T15:06:43;5.10;;;1.75;;
15629;SDS011;7914;50.842;0.166;2024-03-17T15:09:09;5.70;;;1.65;;
15629;SDS011;7914;50.842;0.166;2024-03-17T15:11:35;6.53;;;2.25;;
15629;SDS011;7914;50.842;0.166;2024-03-17T15:14:01;6.85;;;1.63;;
15629;SDS011;7914;50.842;0.166;2024-03-17T15:16:29;6.43;;;1.98;;
15629;SDS011;7914;50.842;0.166;2024-03-17T15:18:54;6.55;;;2.28;;
15629;SDS011;7914;50.842;0.166;2024-03-17T15:21:20;6.47;;;1.45;;
15629;SDS011;7914;50.842;0.166;2024-03-17T15:23:46;6.35;;;2.03;;
15629;SDS011;7914;50.842;0.166;2024-03-17T15:26:11;9.90;;;2.80;;
15629;SDS011;7914;50.842;0.166;2024-03-17T15:28:41;10.25;;;3.35;;
15629;SDS011;7914;50.842;0.166;2024-03-17T15:31:11;9.88;;;2.80;;
15629;SDS011;7914;50.842;0.166;2024-03-17T15:33:37;8.98;;;2.83;;
15629;SDS011;7914;50.842;0.166;2024-03-17T15:36:06;6.25;;;1.80;;
15629;SDS011;7914;50.842;0.166;2024-03-17T15:38:35;9.63;;;1.88;;
15629;SDS011;7914;50.842;0.166;2024-03-17T15:41:06;5.68;;;1.75;;
15629;SDS011;7914;50.842;0.166;2024-03-17T15:43:36;7.57;;;1.80;;
15629;SDS011;7914;50.842;0.166;2024-03-17T15:46:18;7.75;;;1.70;;
15629;SDS011;7914;50.842;0.166;2024-03-17T15:48:46;10.55;;;2.33;;